createdAt,value
2023-04-15T00:00:47.465Z,993.17
2023-04-15T00:01:47.555Z,993.17
2023-04-15T00:02:47.708Z,993.18
2023-04-15T00:03:47.842Z,993.17
2023-04-15T00:04:47.523Z,993.23
2023-04-15T00:05:47.403Z,993.27
2023-04-15T00:06:47.377Z,993.23
2023-04-15T00:07:47.366Z,993.23
2023-04-15T00:08:47.363Z,993.17
2023-04-15T00:09:47.340Z,993.16
2023-04-15T00:10:47.319Z,993.17
2023-04-15T00:11:47.312Z,993.17
2023-04-15T00:12:47.299Z,993.14
2023-04-15T00:13:47.301Z,993.13
2023-04-15T00:14:47.269Z,993.14
2023-04-15T00:15:47.266Z,993.12
2023-04-15T00:16:47.279Z,993.15
2023-04-15T00:17:47.249Z,993.14
2023-04-15T00:18:47.242Z,993.12
2023-04-15T00:19:47.214Z,993.12
2023-04-15T00:20:47.190Z,993.10
2023-04-15T00:21:47.219Z,993.10
2023-04-15T00:22:47.176Z,993.10
2023-04-15T00:23:47.170Z,993.08
2023-04-15T00:24:47.127Z,993.09
2023-04-15T00:25:47.128Z,993.09
2023-04-15T00:26:47.112Z,993.08
2023-04-15T00:27:47.097Z,993.10
2023-04-15T00:28:47.092Z,993.06
2023-04-15T00:29:47.071Z,993.01
2023-04-15T00:30:47.086Z,993.03
2023-04-15T00:31:47.056Z,993.03
2023-04-15T00:32:47.096Z,992.99
2023-04-15T00:33:47.052Z,992.99
2023-04-15T00:34:47.014Z,993.00
2023-04-15T00:35:47.000Z,993.05
2023-04-15T00:36:46.987Z,993.07
2023-04-15T00:37:46.978Z,993.06
2023-04-15T00:38:46.970Z,993.07
2023-04-15T00:39:46.946Z,993.03
2023-04-15T00:40:46.930Z,993.05
2023-04-15T00:41:46.925Z,993.05
2023-04-15T00:42:46.904Z,993.07
2023-04-15T00:43:46.893Z,993.02
2023-04-15T00:44:46.870Z,993.02
2023-04-15T00:45:46.894Z,992.99
2023-04-15T00:46:46.849Z,993.02
2023-04-15T00:47:47.017Z,993.01
2023-04-15T00:48:46.834Z,992.99
2023-04-15T00:49:46.813Z,993.01
2023-04-15T00:50:46.792Z,992.98
2023-04-15T00:51:46.779Z,993.03
2023-04-15T00:52:46.758Z,992.98
2023-04-15T00:53:46.771Z,993.00
2023-04-15T00:54:46.742Z,993.01
2023-04-15T00:55:46.731Z,993.01
2023-04-15T00:56:46.747Z,992.98
2023-04-15T00:57:46.700Z,993.01
2023-04-15T00:58:46.696Z,993.00
2023-04-15T00:59:46.682Z,993.05
2023-04-15T01:00:46.653Z,993.07
2023-04-15T01:01:46.768Z,993.09
2023-04-15T01:02:46.673Z,993.11
2023-04-15T01:03:46.939Z,993.10
2023-04-15T01:04:46.599Z,993.09
2023-04-15T01:05:46.593Z,993.11
2023-04-15T01:06:46.583Z,993.11
2023-04-15T01:07:46.570Z,993.12
2023-04-15T01:08:46.580Z,993.11
2023-04-15T01:09:46.544Z,993.09
2023-04-15T01:10:46.521Z,993.11
2023-04-15T01:11:46.511Z,993.11
2023-04-15T01:12:46.500Z,993.07
2023-04-15T01:13:46.508Z,993.07
2023-04-15T01:14:46.469Z,993.05
2023-04-15T01:15:46.478Z,993.02
2023-04-15T01:16:46.446Z,993.02
2023-04-15T01:17:46.458Z,993.04
2023-04-15T01:18:46.436Z,993.01
2023-04-15T01:19:46.413Z,993.04
2023-04-15T01:20:46.387Z,993.01
2023-04-15T01:21:46.381Z,993.04
2023-04-15T01:22:46.373Z,993.06
2023-04-15T01:23:46.361Z,992.98
2023-04-15T01:24:46.331Z,993.05
2023-04-15T01:25:46.319Z,993.03
2023-04-15T01:26:46.307Z,993.01
2023-04-15T01:27:46.297Z,993.02
2023-04-15T01:28:46.305Z,993.02
2023-04-15T01:29:46.268Z,993.03
2023-04-15T01:30:46.271Z,993.01
2023-04-15T01:31:46.287Z,993.05
2023-04-15T01:32:46.282Z,993.02
2023-04-15T01:33:46.205Z,992.98
2023-04-15T01:34:46.218Z,993.00
2023-04-15T01:35:46.202Z,993.02
2023-04-15T01:36:46.187Z,992.99
2023-04-15T01:37:46.174Z,993.01
2023-04-15T01:38:46.146Z,993.00
2023-04-15T01:39:46.157Z,993.01
2023-04-15T01:40:46.126Z,993.04
2023-04-15T01:41:46.111Z,993.04
2023-04-15T01:42:46.099Z,993.07
2023-04-15T01:43:46.110Z,993.10
2023-04-15T01:44:46.093Z,993.10
2023-04-15T01:45:46.063Z,993.12
2023-04-15T01:46:46.180Z,993.12
2023-04-15T01:47:46.045Z,993.10
2023-04-15T01:48:46.034Z,993.11
2023-04-15T01:49:46.012Z,993.14
2023-04-15T01:50:45.986Z,993.08
2023-04-15T01:51:45.963Z,993.09
2023-04-15T01:52:45.954Z,993.06
2023-04-15T01:53:45.937Z,993.09
2023-04-15T01:54:45.943Z,993.06
2023-04-15T01:55:45.912Z,993.07
2023-04-15T01:56:45.913Z,993.12
2023-04-15T01:57:45.882Z,993.08
2023-04-15T01:58:45.868Z,993.09
2023-04-15T01:59:45.873Z,993.11
2023-04-15T02:00:45.888Z,993.10
2023-04-15T02:01:45.880Z,993.09
2023-04-15T02:02:45.957Z,993.11
2023-04-15T02:03:45.846Z,993.09
2023-04-15T02:04:45.824Z,993.10
2023-04-15T02:05:45.783Z,993.10
2023-04-15T02:06:45.779Z,993.10
2023-04-15T02:07:45.745Z,993.11
2023-04-15T02:08:45.750Z,993.08
2023-04-15T02:09:45.725Z,993.10
2023-04-15T02:10:45.743Z,993.09
2023-04-15T02:11:45.703Z,993.08
2023-04-15T02:12:45.699Z,993.09
2023-04-15T02:13:45.677Z,993.11
2023-04-15T02:14:45.673Z,993.09
2023-04-15T02:15:45.674Z,993.09
2023-04-15T02:16:45.698Z,993.13
2023-04-15T02:17:45.758Z,993.10
2023-04-15T02:18:45.625Z,993.12
2023-04-15T02:19:45.597Z,993.12
2023-04-15T02:20:45.620Z,993.10
2023-04-15T02:21:45.572Z,993.10
2023-04-15T02:22:45.565Z,993.06
2023-04-15T02:23:45.540Z,993.09
2023-04-15T02:24:45.540Z,993.10
2023-04-15T02:25:53.792Z,993.11
2023-04-15T02:26:46.507Z,993.13
2023-04-15T02:27:45.502Z,993.13
2023-04-15T02:28:45.479Z,993.11
2023-04-15T02:29:45.469Z,993.13
2023-04-15T02:30:45.484Z,993.13
2023-04-15T02:31:45.490Z,993.16
2023-04-15T02:32:45.634Z,993.17
2023-04-15T02:33:45.425Z,993.20
2023-04-15T02:34:45.398Z,993.15
2023-04-15T02:35:45.413Z,993.17
2023-04-15T02:36:45.362Z,993.18
2023-04-15T02:37:45.355Z,993.17
2023-04-15T02:38:45.367Z,993.18
2023-04-15T02:39:45.351Z,993.19
2023-04-15T02:40:45.349Z,993.20
2023-04-15T02:41:45.306Z,993.22
2023-04-15T02:42:45.298Z,993.19
2023-04-15T02:43:45.296Z,993.17
2023-04-15T02:44:45.270Z,993.17
2023-04-15T02:45:45.328Z,993.21
2023-04-15T02:46:45.240Z,993.17
2023-04-15T02:47:45.233Z,993.22
2023-04-15T02:48:45.220Z,993.21
2023-04-15T02:49:45.193Z,993.18
2023-04-15T02:50:45.220Z,993.18
2023-04-15T02:51:45.157Z,993.20
2023-04-15T02:52:45.169Z,993.20
2023-04-15T02:53:45.148Z,993.22
2023-04-15T02:54:45.141Z,993.19
2023-04-15T02:55:45.138Z,993.21
2023-04-15T02:56:45.113Z,993.21
2023-04-15T02:57:45.093Z,993.18
2023-04-15T02:58:45.142Z,993.18
2023-04-15T02:59:45.060Z,993.22
2023-04-15T03:00:45.063Z,993.20
2023-04-15T03:01:45.136Z,993.18
2023-04-15T03:02:45.132Z,993.22
2023-04-15T03:03:45.201Z,993.25
2023-04-15T03:04:44.993Z,993.27
2023-04-15T03:05:45.003Z,993.26
2023-04-15T03:06:44.976Z,993.24
2023-04-15T03:07:44.971Z,993.27
2023-04-15T03:08:44.951Z,993.26
2023-04-15T03:09:44.942Z,993.28
2023-04-15T03:10:44.939Z,993.26
2023-04-15T03:11:44.904Z,993.29
2023-04-15T03:12:44.891Z,993.30
2023-04-15T03:13:44.890Z,993.28
2023-04-15T03:14:44.889Z,993.29
2023-04-15T03:15:44.953Z,993.34
2023-04-15T03:16:44.855Z,993.34
2023-04-15T03:17:44.833Z,993.34
2023-04-15T03:18:44.813Z,993.34
2023-04-15T03:19:44.806Z,993.34
2023-04-15T03:20:44.859Z,993.32
2023-04-15T03:21:44.777Z,993.32
2023-04-15T03:22:44.771Z,993.31
2023-04-15T03:23:44.754Z,993.37
2023-04-15T03:24:44.762Z,993.32
2023-04-15T03:25:44.749Z,993.30
2023-04-15T03:26:44.701Z,993.31
2023-04-15T03:27:44.695Z,993.31
2023-04-15T03:28:44.706Z,993.28
2023-04-15T03:29:44.671Z,993.29
2023-04-15T03:30:44.675Z,993.27
2023-04-15T03:31:44.650Z,993.27
2023-04-15T03:32:44.644Z,993.26
2023-04-15T03:33:51.792Z,993.25
2023-04-15T03:34:44.608Z,993.24
2023-04-15T03:35:44.616Z,993.22
2023-04-15T03:36:44.596Z,993.25
2023-04-15T03:37:44.571Z,993.25
2023-04-15T03:38:44.532Z,993.20
2023-04-15T03:39:44.539Z,993.19
2023-04-15T03:40:44.563Z,993.22
2023-04-15T03:41:44.530Z,993.21
2023-04-15T03:42:44.599Z,993.21
2023-04-15T03:43:44.490Z,993.21
2023-04-15T03:44:44.475Z,993.23
2023-04-15T03:45:44.484Z,993.25
2023-04-15T03:46:44.629Z,993.26
2023-04-15T03:47:44.447Z,993.26
2023-04-15T03:48:44.476Z,993.25
2023-04-15T03:49:44.411Z,993.23
2023-04-15T03:50:44.424Z,993.28
2023-04-15T03:51:44.389Z,993.26
2023-04-15T03:52:44.366Z,993.29
2023-04-15T03:53:44.358Z,993.25
2023-04-15T03:54:44.364Z,993.26
2023-04-15T03:55:44.351Z,993.24
2023-04-15T03:56:44.332Z,993.24
2023-04-15T03:57:44.327Z,993.24
2023-04-15T03:58:44.292Z,993.26
2023-04-15T03:59:44.282Z,993.26
2023-04-15T04:00:44.278Z,993.29
2023-04-15T04:01:44.301Z,993.29
2023-04-15T04:02:44.373Z,993.25
2023-04-15T04:03:44.365Z,993.26
2023-04-15T04:04:44.279Z,993.25
2023-04-15T04:05:44.220Z,993.23
2023-04-15T04:06:44.204Z,993.21
2023-04-15T04:07:44.198Z,993.24
2023-04-15T04:08:44.139Z,993.23
2023-04-15T04:09:45.712Z,993.22
2023-04-15T04:10:44.133Z,993.20
2023-04-15T04:11:44.111Z,993.20
2023-04-15T04:12:44.097Z,993.21
2023-04-15T04:13:44.080Z,993.21
2023-04-15T04:14:44.252Z,993.22
2023-04-15T04:15:44.109Z,993.22
2023-04-15T04:16:44.222Z,993.25
2023-04-15T04:17:44.057Z,993.23
2023-04-15T04:18:44.053Z,993.23
2023-04-15T04:19:44.007Z,993.23
2023-04-15T04:20:44.025Z,993.26
2023-04-15T04:21:43.985Z,993.26
2023-04-15T04:22:43.984Z,993.26
2023-04-15T04:23:43.956Z,993.22
2023-04-15T04:24:44.039Z,993.24
2023-04-15T04:25:43.946Z,993.22
2023-04-15T04:26:43.915Z,993.27
2023-04-15T04:27:43.909Z,993.26
2023-04-15T04:28:43.896Z,993.24
2023-04-15T04:29:43.922Z,993.27
2023-04-15T04:30:43.888Z,993.27
2023-04-15T04:31:43.875Z,993.29
2023-04-15T04:32:43.867Z,993.32
2023-04-15T04:33:43.874Z,993.31
2023-04-15T04:34:43.810Z,993.32
2023-04-15T04:35:43.821Z,993.32
2023-04-15T04:36:43.785Z,993.30
2023-04-15T04:37:43.774Z,993.30
2023-04-15T04:38:43.769Z,993.29
2023-04-15T04:39:43.748Z,993.29
2023-04-15T04:40:43.762Z,993.27
2023-04-15T04:41:43.714Z,993.30
2023-04-15T04:42:43.701Z,993.27
2023-04-15T04:43:43.676Z,993.30
2023-04-15T04:44:43.671Z,993.27
2023-04-15T04:45:43.703Z,993.30
2023-04-15T04:46:43.659Z,993.31
2023-04-15T04:47:43.729Z,993.30
2023-04-15T04:48:46.541Z,993.33
2023-04-15T04:49:43.810Z,993.29
2023-04-15T04:50:43.599Z,993.35
2023-04-15T04:51:43.608Z,993.33
2023-04-15T04:52:43.583Z,993.32
2023-04-15T04:53:43.825Z,993.34
2023-04-15T04:54:44.459Z,993.33
2023-04-15T04:55:43.525Z,993.36
2023-04-15T04:56:43.572Z,993.35
2023-04-15T04:57:43.552Z,993.37
2023-04-15T04:58:43.494Z,993.36
2023-04-15T04:59:43.495Z,993.37
2023-04-15T05:00:43.515Z,993.36
2023-04-15T05:01:43.495Z,993.34
2023-04-15T05:02:43.539Z,993.37
2023-04-15T05:03:43.583Z,993.37
2023-04-15T05:04:43.415Z,993.38
2023-04-15T05:05:43.400Z,993.38
2023-04-15T05:06:43.396Z,993.40
2023-04-15T05:07:43.408Z,993.38
2023-04-15T05:08:43.342Z,993.39
2023-04-15T05:09:43.354Z,993.37
2023-04-15T05:10:43.335Z,993.35
2023-04-15T05:11:43.332Z,993.40
2023-04-15T05:12:43.340Z,993.41
2023-04-15T05:13:43.297Z,993.41
2023-04-15T05:14:43.340Z,993.43
2023-04-15T05:15:43.379Z,993.45
2023-04-15T05:16:43.272Z,993.40
2023-04-15T05:17:43.370Z,993.42
2023-04-15T05:18:43.272Z,993.46
2023-04-15T05:19:43.205Z,993.46
2023-04-15T05:20:43.196Z,993.50
2023-04-15T05:21:43.269Z,993.51
2023-04-15T05:22:43.161Z,993.52
2023-04-15T05:23:43.152Z,993.50
2023-04-15T05:24:43.161Z,993.51
2023-04-15T05:25:43.126Z,993.52
2023-04-15T05:26:43.140Z,993.54
2023-04-15T05:27:43.166Z,993.55
2023-04-15T05:28:43.121Z,993.56
2023-04-15T05:29:43.077Z,993.57
2023-04-15T05:30:43.073Z,993.53
2023-04-15T05:31:43.159Z,993.54
2023-04-15T05:32:43.086Z,993.54
2023-04-15T05:33:43.026Z,993.58
2023-04-15T05:34:42.994Z,993.64
2023-04-15T05:35:42.999Z,993.60
2023-04-15T05:36:43.011Z,993.64
2023-04-15T05:37:42.985Z,993.64
2023-04-15T05:38:42.949Z,993.69
2023-04-15T05:39:42.948Z,993.63
2023-04-15T05:40:42.927Z,993.64
2023-04-15T05:41:42.952Z,993.67
2023-04-15T05:42:42.907Z,993.66
2023-04-15T05:43:42.903Z,993.65
2023-04-15T05:44:42.874Z,993.67
2023-04-15T05:45:42.865Z,993.68
2023-04-15T05:46:42.967Z,993.67
2023-04-15T05:47:42.965Z,993.67
2023-04-15T05:48:42.835Z,993.68
2023-04-15T05:49:42.833Z,993.64
2023-04-15T05:50:42.800Z,993.70
2023-04-15T05:51:42.830Z,993.69
2023-04-15T05:52:42.771Z,993.70
2023-04-15T05:53:42.750Z,993.69
2023-04-15T05:54:42.746Z,993.70
2023-04-15T05:55:42.735Z,993.71
2023-04-15T05:56:42.743Z,993.75
2023-04-15T05:57:42.712Z,993.71
2023-04-15T05:58:42.683Z,993.71
2023-04-15T05:59:42.719Z,993.74
2023-04-15T06:00:42.666Z,993.76
2023-04-15T06:01:42.676Z,993.78
2023-04-15T06:02:42.802Z,993.74
2023-04-15T06:03:42.819Z,993.75
2023-04-15T06:04:42.757Z,993.77
2023-04-15T06:05:42.604Z,993.79
2023-04-15T06:06:42.634Z,993.75
2023-04-15T06:07:42.608Z,993.76
2023-04-15T06:08:42.562Z,993.76
2023-04-15T06:09:42.588Z,993.74
2023-04-15T06:10:42.661Z,993.75
2023-04-15T06:11:42.513Z,993.75
2023-04-15T06:12:42.514Z,993.74
2023-04-15T06:13:42.520Z,993.75
2023-04-15T06:14:42.480Z,993.72
2023-04-15T06:15:42.557Z,993.76
2023-04-15T06:16:42.544Z,993.80
2023-04-15T06:17:42.480Z,993.79
2023-04-15T06:18:42.424Z,993.82
2023-04-15T06:19:42.429Z,993.79
2023-04-15T06:20:42.397Z,993.85
2023-04-15T06:21:42.466Z,993.80
2023-04-15T06:22:42.381Z,993.85
2023-04-15T06:23:42.373Z,993.88
2023-04-15T06:24:42.371Z,993.89
2023-04-15T06:25:42.373Z,993.92
2023-04-15T06:26:42.318Z,993.92
2023-04-15T06:27:42.345Z,993.98
2023-04-15T06:28:42.284Z,993.98
2023-04-15T06:29:42.273Z,994.00
2023-04-15T06:30:42.265Z,993.96
2023-04-15T06:31:42.313Z,993.97
2023-04-15T06:32:42.283Z,994.00
2023-04-15T06:33:42.229Z,994.00
2023-04-15T06:34:42.278Z,993.99
2023-04-15T06:35:42.218Z,993.96
2023-04-15T06:36:42.242Z,993.95
2023-04-15T06:37:42.182Z,993.94
2023-04-15T06:38:42.204Z,993.98
2023-04-15T06:39:42.149Z,994.02
2023-04-15T06:40:42.126Z,994.01
2023-04-15T06:41:42.160Z,994.03
2023-04-15T06:42:42.114Z,994.12
2023-04-15T06:43:42.099Z,994.09
2023-04-15T06:44:42.143Z,994.10
2023-04-15T06:45:42.109Z,994.12
2023-04-15T06:46:42.074Z,994.09
2023-04-15T06:47:42.104Z,994.11
2023-04-15T06:48:42.026Z,994.08
2023-04-15T06:49:42.097Z,994.08
2023-04-15T06:50:42.016Z,994.05
2023-04-15T06:51:41.980Z,994.05
2023-04-15T06:52:41.978Z,994.07
2023-04-15T06:53:41.961Z,994.07
2023-04-15T06:54:41.955Z,994.02
2023-04-15T06:55:42.098Z,993.98
2023-04-15T06:56:41.917Z,993.96
2023-04-15T06:57:41.923Z,994.01
2023-04-15T06:58:41.906Z,994.02
2023-04-15T06:59:41.873Z,994.01
2023-04-15T07:00:41.863Z,994.01
2023-04-15T07:01:41.865Z,994.00
2023-04-15T07:02:41.965Z,993.98
2023-04-15T07:03:41.839Z,993.98
2023-04-15T07:04:41.799Z,993.98
2023-04-15T07:05:41.800Z,993.99
2023-04-15T07:06:41.820Z,994.01
2023-04-15T07:07:41.765Z,994.00
2023-04-15T07:08:41.769Z,993.98
2023-04-15T07:09:41.752Z,994.00
2023-04-15T07:10:41.729Z,993.97
2023-04-15T07:11:41.735Z,993.98
2023-04-15T07:12:41.713Z,993.97
2023-04-15T07:13:41.679Z,994.01
2023-04-15T07:14:41.677Z,993.99
2023-04-15T07:15:41.682Z,993.98
2023-04-15T07:16:41.708Z,993.99
2023-04-15T07:17:41.684Z,993.96
2023-04-15T07:18:41.625Z,994.03
2023-04-15T07:19:41.630Z,993.95
2023-04-15T07:20:41.628Z,993.99
2023-04-15T07:21:42.019Z,993.97
2023-04-15T07:22:41.569Z,993.96
2023-04-15T07:23:41.578Z,993.96
2023-04-15T07:24:41.555Z,993.97
2023-04-15T07:25:41.541Z,993.98
2023-04-15T07:26:41.565Z,993.97
2023-04-15T07:27:41.504Z,994.00
2023-04-15T07:28:41.487Z,993.97
2023-04-15T07:29:41.495Z,993.99
2023-04-15T07:30:41.642Z,994.01
2023-04-15T07:31:41.482Z,994.03
2023-04-15T07:32:41.474Z,994.03
2023-04-15T07:33:41.427Z,994.03
2023-04-15T07:34:41.414Z,994.02
2023-04-15T07:35:41.397Z,994.01
2023-04-15T07:36:41.407Z,994.01
2023-04-15T07:37:41.371Z,994.03
2023-04-15T07:38:41.373Z,994.06
2023-04-15T07:39:41.343Z,994.03
2023-04-15T07:40:41.366Z,994.01
2023-04-15T07:41:41.315Z,994.03
2023-04-15T07:42:41.513Z,994.02
2023-04-15T07:43:41.290Z,994.04
2023-04-15T07:44:41.282Z,994.03
2023-04-15T07:45:41.362Z,994.07
2023-04-15T07:46:41.322Z,994.03
2023-04-15T07:47:41.310Z,994.08
2023-04-15T07:48:41.232Z,994.07
2023-04-15T07:49:41.284Z,994.04
2023-04-15T07:50:41.216Z,994.09
2023-04-15T07:51:41.209Z,994.07
2023-04-15T07:52:41.269Z,994.09
2023-04-15T07:53:41.161Z,994.06
2023-04-15T07:54:41.176Z,994.09
2023-04-15T07:55:41.142Z,994.06
2023-04-15T07:56:41.144Z,994.03
2023-04-15T07:57:41.102Z,993.99
2023-04-15T07:58:41.093Z,993.99
2023-04-15T07:59:41.087Z,993.96
2023-04-15T08:00:41.074Z,993.98
2023-04-15T08:01:41.078Z,993.94
2023-04-15T08:02:41.325Z,993.93
2023-04-15T08:03:41.169Z,993.95
2023-04-15T08:04:41.337Z,993.95
2023-04-15T08:05:41.018Z,993.89
2023-04-15T08:06:41.027Z,993.95
2023-04-15T08:07:40.982Z,993.95
2023-04-15T08:08:40.987Z,993.95
2023-04-15T08:09:40.960Z,993.97
2023-04-15T08:10:40.957Z,993.99
2023-04-15T08:11:40.941Z,993.93
2023-04-15T08:12:40.915Z,993.95
2023-04-15T08:13:40.888Z,993.96
2023-04-15T08:14:40.897Z,993.91
2023-04-15T08:15:40.924Z,993.97
2023-04-15T08:16:40.947Z,993.96
2023-04-15T08:17:40.898Z,993.91
2023-04-15T08:18:40.856Z,993.97
2023-04-15T08:19:40.829Z,993.92
2023-04-15T08:20:40.847Z,993.96
2023-04-15T08:21:40.868Z,993.90
2023-04-15T08:22:40.790Z,993.93
2023-04-15T08:23:40.767Z,993.98
2023-04-15T08:24:40.781Z,993.98
2023-04-15T08:25:40.739Z,994.02
2023-04-15T08:26:40.754Z,994.01
2023-04-15T08:27:40.725Z,994.02
2023-04-15T08:28:40.706Z,993.99
2023-04-15T08:29:40.716Z,994.01
2023-04-15T08:30:40.695Z,993.99
2023-04-15T08:31:40.723Z,994.00
2023-04-15T08:32:40.677Z,994.02
2023-04-15T08:33:40.636Z,994.01
2023-04-15T08:34:40.642Z,994.05
2023-04-15T08:35:40.624Z,994.07
2023-04-15T08:36:40.646Z,994.05
2023-04-15T08:37:40.607Z,994.02
2023-04-15T08:38:40.571Z,994.02
2023-04-15T08:39:40.589Z,994.03
2023-04-15T08:40:40.594Z,994.07
2023-04-15T08:41:40.721Z,994.07
2023-04-15T08:42:41.871Z,993.98
2023-04-15T08:43:40.500Z,994.00
2023-04-15T08:44:40.493Z,993.97
2023-04-15T08:45:40.522Z,993.95
2023-04-15T08:46:40.570Z,994.04
2023-04-15T08:47:40.795Z,993.97
2023-04-15T08:48:40.441Z,993.99
2023-04-15T08:49:40.432Z,993.95
2023-04-15T08:50:40.508Z,993.97
2023-04-15T08:51:40.540Z,994.00
2023-04-15T08:52:40.421Z,993.98
2023-04-15T08:53:40.420Z,993.99
2023-04-15T08:54:40.357Z,993.94
2023-04-15T08:55:40.344Z,993.92
2023-04-15T08:56:40.383Z,993.93
2023-04-15T08:57:40.342Z,993.90
2023-04-15T08:58:40.305Z,993.90
2023-04-15T08:59:40.285Z,993.91
2023-04-15T09:00:40.265Z,993.93
2023-04-15T09:01:40.353Z,993.93
2023-04-15T09:02:40.397Z,993.93
2023-04-15T09:03:40.453Z,993.89
2023-04-15T09:04:40.226Z,993.91
2023-04-15T09:05:40.220Z,993.90
2023-04-15T09:06:40.216Z,993.90
2023-04-15T09:07:40.215Z,993.90
2023-04-15T09:08:40.168Z,993.92
2023-04-15T09:09:40.596Z,993.91
2023-04-15T09:10:40.273Z,993.93
2023-04-15T09:11:44.934Z,993.90
2023-04-15T09:12:40.153Z,993.89
2023-04-15T09:13:40.117Z,993.92
2023-04-15T09:14:40.094Z,993.93
2023-04-15T09:15:40.082Z,993.94
2023-04-15T09:16:40.164Z,993.91
2023-04-15T09:17:40.096Z,993.91
2023-04-15T09:18:40.077Z,993.91
2023-04-15T09:19:40.019Z,993.95
2023-04-15T09:20:40.032Z,993.96
2023-04-15T09:21:40.076Z,993.93
2023-04-15T09:22:44.612Z,993.97
2023-04-15T09:23:46.586Z,993.96
2023-04-15T09:24:39.968Z,993.96
2023-04-15T09:25:39.934Z,993.97
2023-04-15T09:26:39.972Z,993.98
2023-04-15T09:27:39.918Z,994.02
2023-04-15T09:28:39.906Z,993.97
2023-04-15T09:29:39.917Z,994.04
2023-04-15T09:30:39.888Z,994.09
2023-04-15T09:31:39.861Z,994.04
2023-04-15T09:32:39.896Z,994.07
2023-04-15T09:33:39.819Z,994.13
2023-04-15T09:34:39.811Z,994.12
2023-04-15T09:35:39.788Z,994.07
2023-04-15T09:36:39.806Z,994.07
2023-04-15T09:37:39.773Z,994.10
2023-04-15T09:38:39.759Z,994.11
2023-04-15T09:39:39.738Z,994.16
2023-04-15T09:40:39.722Z,994.12
2023-04-15T09:41:39.736Z,994.15
2023-04-15T09:42:39.691Z,994.12
2023-04-15T09:43:39.707Z,994.15
2023-04-15T09:44:39.674Z,994.17
2023-04-15T09:45:39.672Z,994.15
2023-04-15T09:46:39.662Z,994.15
2023-04-15T09:47:39.638Z,994.17
2023-04-15T09:48:39.619Z,994.18
2023-04-15T09:49:39.664Z,994.17
2023-04-15T09:50:39.583Z,994.21
2023-04-15T09:51:39.603Z,994.17
2023-04-15T09:52:39.571Z,994.22
2023-04-15T09:53:39.554Z,994.21
2023-04-15T09:54:39.534Z,994.22
2023-04-15T09:55:39.554Z,994.27
2023-04-15T09:56:39.545Z,994.29
2023-04-15T09:57:39.519Z,994.26
2023-04-15T09:58:39.501Z,994.30
2023-04-15T09:59:39.485Z,994.34
2023-04-15T10:00:39.473Z,994.29
2023-04-15T10:01:39.488Z,994.32
2023-04-15T10:02:39.552Z,994.35
2023-04-15T10:03:39.507Z,994.35
2023-04-15T10:04:39.523Z,994.37
2023-04-15T10:05:39.499Z,994.35
2023-04-15T10:06:39.407Z,994.33
2023-04-15T10:07:39.391Z,994.34
2023-04-15T10:08:39.352Z,994.36
2023-04-15T10:09:39.345Z,994.35
2023-04-15T10:10:39.324Z,994.26
2023-04-15T10:11:39.334Z,994.33
2023-04-15T10:12:39.322Z,994.32
2023-04-15T10:13:39.303Z,994.29
2023-04-15T10:14:39.317Z,994.27
2023-04-15T10:15:39.282Z,994.29
2023-04-15T10:16:39.244Z,994.27
2023-04-15T10:17:39.262Z,994.31
2023-04-15T10:18:39.219Z,994.25
2023-04-15T10:19:39.205Z,994.25
2023-04-15T10:20:39.187Z,994.28
2023-04-15T10:21:39.180Z,994.30
2023-04-15T10:22:39.184Z,994.28
2023-04-15T10:23:39.184Z,994.32
2023-04-15T10:24:39.150Z,994.31
2023-04-15T10:25:39.119Z,994.32
2023-04-15T10:26:39.113Z,994.35
2023-04-15T10:27:39.116Z,994.26
2023-04-15T10:28:39.244Z,994.29
2023-04-15T10:29:39.156Z,994.29
2023-04-15T10:30:39.048Z,994.32
2023-04-15T10:31:39.311Z,994.35
2023-04-15T10:32:39.140Z,994.36
2023-04-15T10:33:39.050Z,994.35
2023-04-15T10:34:39.098Z,994.35
2023-04-15T10:35:39.000Z,994.37
2023-04-15T10:36:38.970Z,994.39
2023-04-15T10:37:38.959Z,994.35
2023-04-15T10:38:38.975Z,994.43
2023-04-15T10:39:38.937Z,994.41
2023-04-15T10:40:38.924Z,994.45
2023-04-15T10:41:38.894Z,994.49
2023-04-15T10:42:38.920Z,994.50
2023-04-15T10:43:38.863Z,994.52
2023-04-15T10:44:38.907Z,994.52
2023-04-15T10:45:38.860Z,994.54
2023-04-15T10:46:38.892Z,994.59
2023-04-15T10:47:38.891Z,994.58
2023-04-15T10:48:39.030Z,994.61
2023-04-15T10:49:38.801Z,994.66
2023-04-15T10:50:38.796Z,994.65
2023-04-15T10:51:38.763Z,994.63
2023-04-15T10:52:38.772Z,994.68
2023-04-15T10:53:38.989Z,994.70
2023-04-15T10:54:38.708Z,994.72
2023-04-15T10:55:38.714Z,994.73
2023-04-15T10:56:38.709Z,994.75
2023-04-15T10:57:38.720Z,994.73
2023-04-15T10:58:38.721Z,994.69
2023-04-15T10:59:38.675Z,994.74
2023-04-15T11:00:38.650Z,994.72
2023-04-15T11:01:38.714Z,994.67
2023-04-15T11:02:38.829Z,994.68
2023-04-15T11:03:39.087Z,994.70
2023-04-15T11:04:39.930Z,994.79
2023-04-15T11:05:38.569Z,994.78
2023-04-15T11:06:38.597Z,994.82
2023-04-15T11:07:38.572Z,994.82
2023-04-15T11:08:38.583Z,994.85
2023-04-15T11:09:38.560Z,994.88
2023-04-15T11:10:38.518Z,994.95
2023-04-15T11:11:38.505Z,994.93
2023-04-15T11:12:38.482Z,994.89
2023-04-15T11:13:38.478Z,994.91
2023-04-15T11:14:38.476Z,994.98
2023-04-15T11:15:38.448Z,994.91
2023-04-15T11:16:38.488Z,995.02
2023-04-15T11:17:38.516Z,994.98
2023-04-15T11:18:38.434Z,995.03
2023-04-15T11:19:38.393Z,995.05
2023-04-15T11:20:38.408Z,995.07
2023-04-15T11:21:38.358Z,995.05
2023-04-15T11:22:38.353Z,995.07
2023-04-15T11:23:38.344Z,995.08
2023-04-15T11:24:38.327Z,995.10
2023-04-15T11:25:38.307Z,995.07
2023-04-15T11:26:38.305Z,995.10
2023-04-15T11:27:38.282Z,995.11
2023-04-15T11:28:45.446Z,995.09
2023-04-15T11:29:38.257Z,995.10
2023-04-15T11:30:38.281Z,995.15
2023-04-15T11:31:38.249Z,995.15
2023-04-15T11:32:38.245Z,995.21
2023-04-15T11:33:38.316Z,995.17
2023-04-15T11:34:38.215Z,995.17
2023-04-15T11:35:38.177Z,995.13
2023-04-15T11:36:38.165Z,995.17
2023-04-15T11:37:38.156Z,995.12
2023-04-15T11:38:38.148Z,995.15
2023-04-15T11:39:38.119Z,995.18
2023-04-15T11:40:38.114Z,995.20
2023-04-15T11:41:38.090Z,995.18
2023-04-15T11:42:49.215Z,995.23
2023-04-15T11:43:39.083Z,995.24
2023-04-15T11:44:38.052Z,995.23
2023-04-15T11:45:38.073Z,995.22
2023-04-15T11:46:38.025Z,995.21
2023-04-15T11:47:38.025Z,995.26
2023-04-15T11:48:38.027Z,995.28
2023-04-15T11:49:37.999Z,995.26
2023-04-15T11:50:37.976Z,995.25
2023-04-15T11:51:37.959Z,995.24
2023-04-15T11:52:37.993Z,995.22
2023-04-15T11:53:37.952Z,995.28
2023-04-15T11:54:37.913Z,995.26
2023-04-15T11:55:37.907Z,995.24
2023-04-15T11:56:37.924Z,995.25
2023-04-15T11:57:37.891Z,995.26
2023-04-15T11:58:37.867Z,995.27
2023-04-15T11:59:44.976Z,995.26
2023-04-15T12:00:38.820Z,995.32
2023-04-15T12:01:37.830Z,995.34
2023-04-15T12:02:37.899Z,995.34
2023-04-15T12:03:38.026Z,995.38
2023-04-15T12:04:37.944Z,995.34
2023-04-15T12:05:37.774Z,995.37
2023-04-15T12:06:37.756Z,995.36
2023-04-15T12:07:37.725Z,995.38
2023-04-15T12:08:37.747Z,995.39
2023-04-15T12:09:37.728Z,995.44
2023-04-15T12:10:37.701Z,995.45
2023-04-15T12:11:37.700Z,995.48
2023-04-15T12:12:37.678Z,995.50
2023-04-15T12:13:37.685Z,995.43
2023-04-15T12:14:37.654Z,995.47
2023-04-15T12:15:37.676Z,995.53
2023-04-15T12:16:48.183Z,995.55
2023-04-15T12:17:51.474Z,995.50
2023-04-15T12:18:38.617Z,995.54
2023-04-15T12:19:37.652Z,995.56
2023-04-15T12:20:37.568Z,995.57
2023-04-15T12:21:37.543Z,995.57
2023-04-15T12:22:37.578Z,995.61
2023-04-15T12:23:37.700Z,995.64
2023-04-15T12:24:37.506Z,995.61
2023-04-15T12:25:37.498Z,995.65
2023-04-15T12:26:37.496Z,995.60
2023-04-15T12:27:37.471Z,995.69
2023-04-15T12:28:37.450Z,995.74